sensor_id;sensor_type;location;lat;lon;timestamp;P1;durP1;ratioP1;P2;durP2;ratioP2
27383;SDS011;14851;51.166;4.760;2023-05-10T00:00:45;21.58;;;17.17;;
27383;SDS011;14851;51.166;4.760;2023-05-10T00:03:11;21.25;;;15.23;;
27383;SDS011;14851;51.166;4.760;2023-05-10T00:05:39;20.40;;;15.55;;
27383;SDS011;14851;51.166;4.760;2023-05-10T00:08:05;20.80;;;15.02;;
27383;SDS011;14851;51.166;4.760;2023-05-10T00:10:31;19.83;;;15.25;;
27383;SDS011;14851;51.166;4.760;2023-05-10T00:12:57;16.63;;;13.55;;
27383;SDS011;14851;51.166;4.760;2023-05-10T00:15:23;21.75;;;14.02;;
27383;SDS011;14851;51.166;4.760;2023-05-10T00:17:51;18.83;;;14.73;;
27383;SDS011;14851;51.166;4.760;2023-05-10T00:20:17;22.35;;;14.52;;
27383;SDS011;14851;51.166;4.760;2023-05-10T00:22:43;18.15;;;14.40;;
27383;SDS011;14851;51.166;4.760;2023-05-10T00:25:09;19.10;;;13.98;;
27383;SDS011;14851;51.166;4.760;2023-05-10T00:27:35;21.52;;;14.38;;
27383;SDS011;14851;51.166;4.760;2023-05-10T00:30:01;18.95;;;14.15;;
27383;SDS011;14851;51.166;4.760;2023-05-10T00:32:28;20.63;;;12.65;;
27383;SDS011;14851;51.166;4.760;2023-05-10T00:34:57;19.27;;;13.82;;
27383;SDS011;14851;51.166;4.760;2023-05-10T00:37:22;18.58;;;13.23;;
27383;SDS011;14851;51.166;4.760;2023-05-10T00:39:48;19.58;;;12.93;;
27383;SDS011;14851;51.166;4.760;2023-05-10T00:42:14;26.30;;;13.18;;
27383;SDS011;14851;51.166;4.760;2023-05-10T00:44:41;19.65;;;13.85;;
27383;SDS011;14851;51.166;4.760;2023-05-10T00:47:07;24.00;;;13.52;;
27383;SDS011;14851;51.166;4.760;2023-05-10T00:49:36;18.15;;;13.80;;
27383;SDS011;14851;51.166;4.760;2023-05-10T00:52:02;18.45;;;12.65;;
27383;SDS011;14851;51.166;4.760;2023-05-10T00:54:28;20.83;;;13.90;;
27383;SDS011;14851;51.166;4.760;2023-05-10T00:56:55;19.73;;;13.52;;
27383;SDS011;14851;51.166;4.760;2023-05-10T00:59:22;24.17;;;13.77;;
27383;SDS011;14851;51.166;4.760;2023-05-10T01:01:48;22.55;;;13.65;;
27383;SDS011;14851;51.166;4.760;2023-05-10T01:04:14;23.05;;;12.70;;
27383;SDS011;14851;51.166;4.760;2023-05-10T01:06:45;24.38;;;13.57;;
27383;SDS011;14851;51.166;4.760;2023-05-10T01:09:13;18.45;;;13.52;;
27383;SDS011;14851;51.166;4.760;2023-05-10T01:11:43;26.30;;;14.40;;
27383;SDS011;14851;51.166;4.760;2023-05-10T01:14:09;27.40;;;14.73;;
27383;SDS011;14851;51.166;4.760;2023-05-10T01:16:42;20.90;;;14.18;;
27383;SDS011;14851;51.166;4.760;2023-05-10T01:19:22;26.67;;;15.05;;
27383;SDS011;14851;51.166;4.760;2023-05-10T01:27:35;23.95;;;15.70;;
27383;SDS011;14851;51.166;4.760;2023-05-10T01:33:49;26.08;;;16.40;;
27383;SDS011;14851;51.166;4.760;2023-05-10T01:39:45;27.27;;;16.08;;
27383;SDS011;14851;51.166;4.760;2023-05-10T01:42:17;31.00;;;16.75;;
27383;SDS011;14851;51.166;4.760;2023-05-10T01:45:04;28.75;;;16.15;;
27383;SDS011;14851;51.166;4.760;2023-05-10T01:47:46;29.98;;;17.45;;
27383;SDS011;14851;51.166;4.760;2023-05-10T01:50:24;30.45;;;17.98;;
27383;SDS011;14851;51.166;4.760;2023-05-10T01:52:55;28.00;;;17.02;;
27383;SDS011;14851;51.166;4.760;2023-05-10T01:55:25;25.40;;;17.05;;
27383;SDS011;14851;51.166;4.760;2023-05-10T01:58:07;30.42;;;17.20;;
27383;SDS011;14851;51.166;4.760;2023-05-10T02:03:06;32.55;;;19.50;;
27383;SDS011;14851;51.166;4.760;2023-05-10T02:05:33;30.80;;;18.50;;
27383;SDS011;14851;51.166;4.760;2023-05-10T02:08:01;32.08;;;19.77;;
27383;SDS011;14851;51.166;4.760;2023-05-10T02:10:31;32.60;;;19.50;;
27383;SDS011;14851;51.166;4.760;2023-05-10T02:13:02;30.83;;;19.60;;
27383;SDS011;14851;51.166;4.760;2023-05-10T02:15:31;32.55;;;18.55;;
27383;SDS011;14851;51.166;4.760;2023-05-10T02:18:00;31.45;;;19.10;;
27383;SDS011;14851;51.166;4.760;2023-05-10T02:20:29;27.42;;;18.70;;
27383;SDS011;14851;51.166;4.760;2023-05-10T02:22:57;31.13;;;18.73;;
27383;SDS011;14851;51.166;4.760;2023-05-10T02:25:24;29.17;;;18.58;;
27383;SDS011;14851;51.166;4.760;2023-05-10T02:27:51;29.25;;;17.05;;
27383;SDS011;14851;51.166;4.760;2023-05-10T02:30:21;26.17;;;17.55;;
27383;SDS011;14851;51.166;4.760;2023-05-10T02:32:49;23.58;;;17.17;;
27383;SDS011;14851;51.166;4.760;2023-05-10T02:35:17;26.95;;;17.77;;
27383;SDS011;14851;51.166;4.760;2023-05-10T02:37:46;24.58;;;15.85;;
27383;SDS011;14851;51.166;4.760;2023-05-10T02:40:15;25.27;;;17.52;;
27383;SDS011;14851;51.166;4.760;2023-05-10T02:42:43;24.38;;;16.45;;
27383;SDS011;14851;51.166;4.760;2023-05-10T02:45:15;23.88;;;17.15;;
27383;SDS011;14851;51.166;4.760;2023-05-10T02:47:48;24.98;;;17.20;;
27383;SDS011;14851;51.166;4.760;2023-05-10T02:50:14;20.92;;;17.08;;
27383;SDS011;14851;51.166;4.760;2023-05-10T02:52:40;21.77;;;16.38;;
27383;SDS011;14851;51.166;4.760;2023-05-10T02:55:13;22.80;;;16.75;;
27383;SDS011;14851;51.166;4.760;2023-05-10T02:57:51;21.98;;;16.75;;
27383;SDS011;14851;51.166;4.760;2023-05-10T03:00:20;26.58;;;18.05;;
27383;SDS011;14851;51.166;4.760;2023-05-10T03:02:49;24.65;;;17.23;;
27383;SDS011;14851;51.166;4.760;2023-05-10T03:05:15;22.77;;;16.45;;
27383;SDS011;14851;51.166;4.760;2023-05-10T03:07:41;23.70;;;17.88;;
27383;SDS011;14851;51.166;4.760;2023-05-10T03:10:08;23.20;;;18.00;;
27383;SDS011;14851;51.166;4.760;2023-05-10T03:13:01;25.30;;;18.57;;
27383;SDS011;14851;51.166;4.760;2023-05-10T03:18:54;24.27;;;18.90;;
27383;SDS011;14851;51.166;4.760;2023-05-10T03:21:32;25.17;;;18.95;;
27383;SDS011;14851;51.166;4.760;2023-05-10T03:23:59;25.67;;;19.15;;
27383;SDS011;14851;51.166;4.760;2023-05-10T03:26:33;25.77;;;18.85;;
27383;SDS011;14851;51.166;4.760;2023-05-10T03:29:09;24.00;;;18.40;;
27383;SDS011;14851;51.166;4.760;2023-05-10T03:31:37;29.40;;;20.17;;
27383;SDS011;14851;51.166;4.760;2023-05-10T03:34:09;26.33;;;20.20;;
27383;SDS011;14851;51.166;4.760;2023-05-10T03:36:35;27.20;;;20.13;;
27383;SDS011;14851;51.166;4.760;2023-05-10T03:39:01;32.08;;;23.40;;
27383;SDS011;14851;51.166;4.760;2023-05-10T03:41:30;32.47;;;24.52;;
27383;SDS011;14851;51.166;4.760;2023-05-10T03:43:56;37.92;;;26.30;;
27383;SDS011;14851;51.166;4.760;2023-05-10T03:46:21;55.67;;;35.90;;
27383;SDS011;14851;51.166;4.760;2023-05-10T03:48:48;54.63;;;34.75;;
27383;SDS011;14851;51.166;4.760;2023-05-10T03:51:16;58.40;;;36.53;;
27383;SDS011;14851;51.166;4.760;2023-05-10T03:53:42;68.05;;;41.65;;
27383;SDS011;14851;51.166;4.760;2023-05-10T03:56:08;76.05;;;47.05;;
27383;SDS011;14851;51.166;4.760;2023-05-10T03:58:35;80.15;;;47.25;;
27383;SDS011;14851;51.166;4.760;2023-05-10T04:01:00;85.97;;;50.35;;
27383;SDS011;14851;51.166;4.760;2023-05-10T04:03:26;93.25;;;54.53;;
27383;SDS011;14851;51.166;4.760;2023-05-10T04:05:59;93.45;;;53.60;;
27383;SDS011;14851;51.166;4.760;2023-05-10T04:08:29;92.40;;;56.17;;
27383;SDS011;14851;51.166;4.760;2023-05-10T04:11:05;91.70;;;53.08;;
27383;SDS011;14851;51.166;4.760;2023-05-10T04:13:32;91.47;;;53.30;;
27383;SDS011;14851;51.166;4.760;2023-05-10T04:15:58;79.30;;;47.60;;
27383;SDS011;14851;51.166;4.760;2023-05-10T04:18:24;74.78;;;44.35;;
27383;SDS011;14851;51.166;4.760;2023-05-10T04:20:52;75.00;;;45.03;;
27383;SDS011;14851;51.166;4.760;2023-05-10T04:23:20;75.97;;;44.47;;
27383;SDS011;14851;51.166;4.760;2023-05-10T04:25:48;71.65;;;43.65;;
27383;SDS011;14851;51.166;4.760;2023-05-10T04:28:14;70.93;;;43.05;;
27383;SDS011;14851;51.166;4.760;2023-05-10T04:30:40;67.47;;;41.45;;
27383;SDS011;14851;51.166;4.760;2023-05-10T04:33:06;64.25;;;39.75;;
27383;SDS011;14851;51.166;4.760;2023-05-10T04:35:34;59.38;;;37.50;;
27383;SDS011;14851;51.166;4.760;2023-05-10T04:38:00;53.85;;;36.78;;
27383;SDS011;14851;51.166;4.760;2023-05-10T04:40:26;56.20;;;36.00;;
27383;SDS011;14851;51.166;4.760;2023-05-10T04:42:54;55.67;;;36.70;;
27383;SDS011;14851;51.166;4.760;2023-05-10T04:45:20;54.45;;;36.25;;
27383;SDS011;14851;51.166;4.760;2023-05-10T04:47:46;52.03;;;34.42;;
27383;SDS011;14851;51.166;4.760;2023-05-10T04:50:12;53.03;;;34.78;;
27383;SDS011;14851;51.166;4.760;2023-05-10T04:52:41;54.88;;;34.33;;
27383;SDS011;14851;51.166;4.760;2023-05-10T04:55:07;54.65;;;34.67;;
27383;SDS011;14851;51.166;4.760;2023-05-10T04:57:34;51.25;;;33.90;;
27383;SDS011;14851;51.166;4.760;2023-05-10T05:00:00;54.85;;;34.05;;
27383;SDS011;14851;51.166;4.760;2023-05-10T05:02:30;53.92;;;34.10;;
27383;SDS011;14851;51.166;4.760;2023-05-10T05:04:56;56.50;;;33.97;;
27383;SDS011;14851;51.166;4.760;2023-05-10T05:07:23;50.80;;;32.50;;
27383;SDS011;14851;51.166;4.760;2023-05-10T05:09:48;51.50;;;33.25;;
27383;SDS011;14851;51.166;4.760;2023-05-10T05:12:14;49.92;;;29.90;;
27383;SDS011;14851;51.166;4.760;2023-05-10T05:14:40;48.58;;;31.23;;
27383;SDS011;14851;51.166;4.760;2023-05-10T05:17:09;48.60;;;30.30;;
27383;SDS011;14851;51.166;4.760;2023-05-10T05:19:34;50.50;;;30.88;;
27383;SDS011;14851;51.166;4.760;2023-05-10T05:22:01;48.67;;;31.23;;
27383;SDS011;14851;51.166;4.760;2023-05-10T05:24:26;47.03;;;31.52;;
27383;SDS011;14851;51.166;4.760;2023-05-10T05:26:52;48.47;;;30.85;;
27383;SDS011;14851;51.166;4.760;2023-05-10T05:29:18;51.15;;;32.45;;
27383;SDS011;14851;51.166;4.760;2023-05-10T05:31:44;51.28;;;31.92;;
27383;SDS011;14851;51.166;4.760;2023-05-10T05:34:10;50.70;;;31.35;;
27383;SDS011;14851;51.166;4.760;2023-05-10T05:36:36;51.05;;;31.80;;
27383;SDS011;14851;51.166;4.760;2023-05-10T05:39:05;43.17;;;29.60;;
27383;SDS011;14851;51.166;4.760;2023-05-10T05:41:33;48.88;;;31.52;;
27383;SDS011;14851;51.166;4.760;2023-05-10T05:43:59;49.90;;;30.70;;
27383;SDS011;14851;51.166;4.760;2023-05-10T05:46:25;49.03;;;31.65;;
27383;SDS011;14851;51.166;4.760;2023-05-10T05:48:50;48.80;;;31.95;;
27383;SDS011;14851;51.166;4.760;2023-05-10T05:51:16;48.03;;;31.85;;
27383;SDS011;14851;51.166;4.760;2023-05-10T05:53:42;50.80;;;32.50;;
27383;SDS011;14851;51.166;4.760;2023-05-10T05:56:10;49.95;;;32.60;;
27383;SDS011;14851;51.166;4.760;2023-05-10T05:58:36;47.17;;;31.65;;
27383;SDS011;14851;51.166;4.760;2023-05-10T06:01:02;49.55;;;32.22;;
27383;SDS011;14851;51.166;4.760;2023-05-10T06:03:28;50.38;;;33.53;;
27383;SDS011;14851;51.166;4.760;2023-05-10T06:05:54;49.55;;;33.15;;
27383;SDS011;14851;51.166;4.760;2023-05-10T06:08:20;48.55;;;33.15;;
27383;SDS011;14851;51.166;4.760;2023-05-10T06:10:46;53.20;;;33.80;;
27383;SDS011;14851;51.166;4.760;2023-05-10T06:13:12;51.40;;;33.10;;
27383;SDS011;14851;51.166;4.760;2023-05-10T06:15:38;50.70;;;32.60;;
27383;SDS011;14851;51.166;4.760;2023-05-10T06:18:04;48.80;;;33.35;;
27383;SDS011;14851;51.166;4.760;2023-05-10T06:20:30;46.05;;;32.78;;
27383;SDS011;14851;51.166;4.760;2023-05-10T06:23:00;46.15;;;32.70;;
27383;SDS011;14851;51.166;4.760;2023-05-10T06:25:26;46.17;;;32.63;;
27383;SDS011;14851;51.166;4.760;2023-05-10T06:27:54;47.15;;;33.45;;
27383;SDS011;14851;51.166;4.760;2023-05-10T06:30:23;49.63;;;33.15;;
27383;SDS011;14851;51.166;4.760;2023-05-10T06:32:52;41.17;;;29.52;;
27383;SDS011;14851;51.166;4.760;2023-05-10T06:35:18;37.85;;;28.58;;
27383;SDS011;14851;51.166;4.760;2023-05-10T06:37:44;40.03;;;28.00;;
27383;SDS011;14851;51.166;4.760;2023-05-10T06:40:11;38.90;;;26.98;;
27383;SDS011;14851;51.166;4.760;2023-05-10T06:42:37;37.83;;;27.42;;
27383;SDS011;14851;51.166;4.760;2023-05-10T06:45:03;38.72;;;26.92;;
27383;SDS011;14851;51.166;4.760;2023-05-10T06:47:33;38.03;;;27.00;;
27383;SDS011;14851;51.166;4.760;2023-05-10T06:50:01;40.58;;;28.65;;
27383;SDS011;14851;51.166;4.760;2023-05-10T06:52:28;37.22;;;29.77;;
27383;SDS011;14851;51.166;4.760;2023-05-10T06:54:54;35.60;;;27.33;;
27383;SDS011;14851;51.166;4.760;2023-05-10T06:57:19;38.67;;;28.02;;
27383;SDS011;14851;51.166;4.760;2023-05-10T06:59:46;40.10;;;27.85;;
27383;SDS011;14851;51.166;4.760;2023-05-10T07:02:12;40.38;;;28.30;;
27383;SDS011;14851;51.166;4.760;2023-05-10T07:04:40;35.00;;;27.42;;
27383;SDS011;14851;51.166;4.760;2023-05-10T07:07:05;41.58;;;28.85;;
27383;SDS011;14851;51.166;4.760;2023-05-10T07:09:31;38.25;;;29.83;;
27383;SDS011;14851;51.166;4.760;2023-05-10T07:11:57;43.72;;;32.67;;
27383;SDS011;14851;51.166;4.760;2023-05-10T07:14:27;48.60;;;33.40;;
27383;SDS011;14851;51.166;4.760;2023-05-10T07:16:53;44.47;;;34.67;;
27383;SDS011;14851;51.166;4.760;2023-05-10T07:19:19;45.97;;;35.15;;
27383;SDS011;14851;51.166;4.760;2023-05-10T07:21:45;50.53;;;36.47;;
27383;SDS011;14851;51.166;4.760;2023-05-10T07:24:11;46.50;;;36.55;;
27383;SDS011;14851;51.166;4.760;2023-05-10T07:26:38;47.10;;;34.63;;
27383;SDS011;14851;51.166;4.760;2023-05-10T07:29:03;42.50;;;33.25;;
27383;SDS011;14851;51.166;4.760;2023-05-10T07:31:29;47.92;;;35.03;;
27383;SDS011;14851;51.166;4.760;2023-05-10T07:33:55;41.50;;;32.15;;
27383;SDS011;14851;51.166;4.760;2023-05-10T07:36:21;45.72;;;33.72;;
27383;SDS011;14851;51.166;4.760;2023-05-10T07:38:47;45.58;;;32.65;;
27383;SDS011;14851;51.166;4.760;2023-05-10T07:41:14;46.05;;;31.67;;
27383;SDS011;14851;51.166;4.760;2023-05-10T07:43:40;43.25;;;31.58;;
27383;SDS011;14851;51.166;4.760;2023-05-10T07:46:06;42.35;;;31.42;;
27383;SDS011;14851;51.166;4.760;2023-05-10T07:48:32;41.72;;;29.77;;
27383;SDS011;14851;51.166;4.760;2023-05-10T07:50:59;45.35;;;31.85;;
27383;SDS011;14851;51.166;4.760;2023-05-10T07:53:25;45.70;;;31.20;;
27383;SDS011;14851;51.166;4.760;2023-05-10T07:55:54;47.92;;;32.63;;
27383;SDS011;14851;51.166;4.760;2023-05-10T07:58:23;39.10;;;29.67;;
27383;SDS011;14851;51.166;4.760;2023-05-10T08:00:54;42.38;;;29.50;;
27383;SDS011;14851;51.166;4.760;2023-05-10T08:03:22;40.08;;;28.65;;
27383;SDS011;14851;51.166;4.760;2023-05-10T08:05:48;35.08;;;27.23;;
27383;SDS011;14851;51.166;4.760;2023-05-10T08:08:14;39.72;;;28.73;;
27383;SDS011;14851;51.166;4.760;2023-05-10T08:10:40;36.75;;;27.17;;
27383;SDS011;14851;51.166;4.760;2023-05-10T08:13:06;37.63;;;28.15;;
27383;SDS011;14851;51.166;4.760;2023-05-10T08:15:32;35.88;;;28.85;;
27383;SDS011;14851;51.166;4.760;2023-05-10T08:17:58;38.10;;;28.27;;
27383;SDS011;14851;51.166;4.760;2023-05-10T08:20:26;37.15;;;28.02;;
27383;SDS011;14851;51.166;4.760;2023-05-10T08:22:55;38.25;;;28.10;;
27383;SDS011;14851;51.166;4.760;2023-05-10T08:25:20;37.28;;;27.80;;
27383;SDS011;14851;51.166;4.760;2023-05-10T08:27:47;35.85;;;27.80;;
27383;SDS011;14851;51.166;4.760;2023-05-10T08:30:13;39.42;;;30.25;;
27383;SDS011;14851;51.166;4.760;2023-05-10T08:32:39;36.30;;;29.00;;
27383;SDS011;14851;51.166;4.760;2023-05-10T08:35:07;35.90;;;28.38;;
27383;SDS011;14851;51.166;4.760;2023-05-10T08:37:35;42.83;;;30.40;;
27383;SDS011;14851;51.166;4.760;2023-05-10T08:40:01;38.65;;;29.80;;
27383;SDS011;14851;51.166;4.760;2023-05-10T08:42:28;40.10;;;31.13;;
27383;SDS011;14851;51.166;4.760;2023-05-10T08:44:57;39.38;;;30.40;;
27383;SDS011;14851;51.166;4.760;2023-05-10T08:47:24;39.40;;;30.98;;
27383;SDS011;14851;51.166;4.760;2023-05-10T08:49:50;37.63;;;30.88;;
27383;SDS011;14851;51.166;4.760;2023-05-10T08:52:17;38.95;;;31.48;;
27383;SDS011;14851;51.166;4.760;2023-05-10T08:54:43;40.35;;;31.42;;
27383;SDS011;14851;51.166;4.760;2023-05-10T08:57:11;39.83;;;31.50;;
27383;SDS011;14851;51.166;4.760;2023-05-10T08:59:42;38.70;;;30.80;;
27383;SDS011;14851;51.166;4.760;2023-05-10T09:02:09;36.15;;;29.88;;
27383;SDS011;14851;51.166;4.760;2023-05-10T09:04:36;36.42;;;27.27;;
27383;SDS011;14851;51.166;4.760;2023-05-10T09:07:02;30.63;;;24.60;;
27383;SDS011;14851;51.166;4.760;2023-05-10T09:09:31;35.55;;;26.23;;
27383;SDS011;14851;51.166;4.760;2023-05-10T09:11:57;32.83;;;25.45;;
27383;SDS011;14851;51.166;4.760;2023-05-10T09:14:23;27.80;;;23.73;;
27383;SDS011;14851;51.166;4.760;2023-05-10T09:16:50;32.55;;;25.92;;
27383;SDS011;14851;51.166;4.760;2023-05-10T09:19:19;27.88;;;22.63;;
27383;SDS011;14851;51.166;4.760;2023-05-10T09:21:45;31.92;;;25.00;;
27383;SDS011;14851;51.166;4.760;2023-05-10T09:24:13;30.02;;;24.60;;
27383;SDS011;14851;51.166;4.760;2023-05-10T09:26:48;26.63;;;23.50;;
27383;SDS011;14851;51.166;4.760;2023-05-10T09:29:14;28.50;;;24.08;;
27383;SDS011;14851;51.166;4.760;2023-05-10T09:31:43;26.85;;;23.20;;
27383;SDS011;14851;51.166;4.760;2023-05-10T09:34:15;27.90;;;23.10;;
27383;SDS011;14851;51.166;4.760;2023-05-10T09:36:54;30.98;;;24.58;;
27383;SDS011;14851;51.166;4.760;2023-05-10T09:41:58;26.10;;;20.88;;
27383;SDS011;14851;51.166;4.760;2023-05-10T09:44:31;27.02;;;22.65;;
27383;SDS011;14851;51.166;4.760;2023-05-10T09:46:58;28.15;;;22.30;;
27383;SDS011;14851;51.166;4.760;2023-05-10T09:49:24;27.80;;;21.90;;
27383;SDS011;14851;51.166;4.760;2023-05-10T09:52:00;27.88;;;21.80;;
27383;SDS011;14851;51.166;4.760;2023-05-10T09:54:33;27.02;;;22.40;;
27383;SDS011;14851;51.166;4.760;2023-05-10T09:57:02;30.92;;;22.30;;
27383;SDS011;14851;51.166;4.760;2023-05-10T09:59:32;25.27;;;20.45;;
27383;SDS011;14851;51.166;4.760;2023-05-10T10:02:00;28.50;;;21.88;;
27383;SDS011;14851;51.166;4.760;2023-05-10T10:04:26;28.15;;;21.80;;
27383;SDS011;14851;51.166;4.760;2023-05-10T10:07:01;27.75;;;21.25;;
27383;SDS011;14851;51.166;4.760;2023-05-10T10:09:28;24.15;;;17.50;;
27383;SDS011;14851;51.166;4.760;2023-05-10T10:11:57;22.65;;;15.88;;
27383;SDS011;14851;51.166;4.760;2023-05-10T10:14:26;24.98;;;16.08;;
27383;SDS011;14851;51.166;4.760;2023-05-10T10:16:54;21.33;;;15.98;;
27383;SDS011;14851;51.166;4.760;2023-05-10T10:19:21;22.27;;;15.48;;
27383;SDS011;14851;51.166;4.760;2023-05-10T10:21:47;21.35;;;15.15;;
27383;SDS011;14851;51.166;4.760;2023-05-10T10:24:15;22.27;;;15.02;;
27383;SDS011;14851;51.166;4.760;2023-05-10T10:26:45;22.42;;;15.38;;
27383;SDS011;14851;51.166;4.760;2023-05-10T10:32:08;22.30;;;14.82;;
27383;SDS011;14851;51.166;4.760;2023-05-10T10:34:48;26.17;;;16.63;;
27383;SDS011;14851;51.166;4.760;2023-05-10T10:37:15;18.70;;;14.00;;
27383;SDS011;14851;51.166;4.760;2023-05-10T10:39:40;20.95;;;14.25;;
27383;SDS011;14851;51.166;4.760;2023-05-10T10:42:06;21.50;;;14.85;;
27383;SDS011;14851;51.166;4.760;2023-05-10T10:47:21;21.60;;;13.45;;
27383;SDS011;14851;51.166;4.760;2023-05-10T10:52:33;19.85;;;14.20;;
27383;SDS011;14851;51.166;4.760;2023-05-10T10:55:00;16.92;;;13.05;;
27383;SDS011;14851;51.166;4.760;2023-05-10T10:57:55;18.88;;;14.02;;
27383;SDS011;14851;51.166;4.760;2023-05-10T11:00:33;16.80;;;13.05;;
27383;SDS011;14851;51.166;4.760;2023-05-10T11:03:04;17.05;;;13.02;;
27383;SDS011;14851;51.166;4.760;2023-05-10T11:05:43;16.50;;;12.38;;
27383;SDS011;14851;51.166;4.760;2023-05-10T11:08:14;15.90;;;12.60;;
27383;SDS011;14851;51.166;4.760;2023-05-10T11:13:45;16.45;;;12.60;;
27383;SDS011;14851;51.166;4.760;2023-05-10T11:16:23;17.50;;;11.52;;
27383;SDS011;14851;51.166;4.760;2023-05-10T11:21:27;16.00;;;11.60;;
27383;SDS011;14851;51.166;4.760;2023-05-10T11:23:54;15.30;;;11.32;;
27383;SDS011;14851;51.166;4.760;2023-05-10T11:26:22;14.45;;;10.95;;
27383;SDS011;14851;51.166;4.760;2023-05-10T11:28:51;15.45;;;10.80;;
27383;SDS011;14851;51.166;4.760;2023-05-10T11:31:19;17.15;;;12.07;;
27383;SDS011;14851;51.166;4.760;2023-05-10T11:33:50;17.73;;;12.63;;
27383;SDS011;14851;51.166;4.760;2023-05-10T11:36:17;16.40;;;12.27;;
27383;SDS011;14851;51.166;4.760;2023-05-10T11:38:47;13.57;;;11.38;;
27383;SDS011;14851;51.166;4.760;2023-05-10T11:41:14;16.50;;;12.57;;
27383;SDS011;14851;51.166;4.760;2023-05-10T11:43:45;16.65;;;11.85;;
27383;SDS011;14851;51.166;4.760;2023-05-10T11:46:14;13.80;;;12.25;;
27383;SDS011;14851;51.166;4.760;2023-05-10T11:48:41;16.40;;;12.20;;
27383;SDS011;14851;51.166;4.760;2023-05-10T11:51:08;14.77;;;11.15;;
27383;SDS011;14851;51.166;4.760;2023-05-10T11:53:35;14.93;;;12.07;;
27383;SDS011;14851;51.166;4.760;2023-05-10T11:56:09;14.73;;;11.75;;
27383;SDS011;14851;51.166;4.760;2023-05-10T11:58:39;13.38;;;11.55;;
27383;SDS011;14851;51.166;4.760;2023-05-10T12:01:07;13.40;;;10.88;;
27383;SDS011;14851;51.166;4.760;2023-05-10T12:03:36;12.30;;;10.43;;
27383;SDS011;14851;51.166;4.760;2023-05-10T12:06:03;12.05;;;10.23;;
27383;SDS011;14851;51.166;4.760;2023-05-10T12:08:30;12.30;;;10.20;;
27383;SDS011;14851;51.166;4.760;2023-05-10T12:11:09;13.05;;;10.23;;
27383;SDS011;14851;51.166;4.760;2023-05-10T12:13:39;12.68;;;9.90;;
27383;SDS011;14851;51.166;4.760;2023-05-10T12:16:15;12.27;;;10.32;;
27383;SDS011;14851;51.166;4.760;2023-05-10T12:18:49;10.93;;;9.45;;
27383;SDS011;14851;51.166;4.760;2023-05-10T12:21:16;12.23;;;10.27;;
27383;SDS011;14851;51.166;4.760;2023-05-10T12:23:42;13.15;;;10.30;;
27383;SDS011;14851;51.166;4.760;2023-05-10T12:26:11;11.73;;;10.25;;
27383;SDS011;14851;51.166;4.760;2023-05-10T12:28:37;13.98;;;10.13;;
27383;SDS011;14851;51.166;4.760;2023-05-10T12:31:05;13.88;;;10.63;;
27383;SDS011;14851;51.166;4.760;2023-05-10T12:33:35;12.20;;;10.32;;
27383;SDS011;14851;51.166;4.760;2023-05-10T12:36:12;12.50;;;10.23;;
27383;SDS011;14851;51.166;4.760;2023-05-10T12:38:40;10.85;;;9.75;;
27383;SDS011;14851;51.166;4.760;2023-05-10T12:41:16;10.60;;;9.40;;
27383;SDS011;14851;51.166;4.760;2023-05-10T12:43:43;14.45;;;10.43;;
27383;SDS011;14851;51.166;4.760;2023-05-10T12:48:40;10.95;;;9.05;;
27383;SDS011;14851;51.166;4.760;2023-05-10T12:51:09;11.98;;;9.43;;
27383;SDS011;14851;51.166;4.760;2023-05-10T12:53:37;12.88;;;9.60;;
27383;SDS011;14851;51.166;4.760;2023-05-10T12:56:05;13.68;;;9.68;;
27383;SDS011;14851;51.166;4.760;2023-05-10T12:58:31;12.20;;;9.40;;
27383;SDS011;14851;51.166;4.760;2023-05-10T13:00:57;12.98;;;9.02;;
27383;SDS011;14851;51.166;4.760;2023-05-10T13:03:24;10.73;;;9.10;;
27383;SDS011;14851;51.166;4.760;2023-05-10T13:05:53;11.15;;;9.00;;
27383;SDS011;14851;51.166;4.760;2023-05-10T13:08:19;10.30;;;9.05;;
27383;SDS011;14851;51.166;4.760;2023-05-10T13:10:45;9.77;;;8.68;;
27383;SDS011;14851;51.166;4.760;2023-05-10T13:13:10;10.82;;;8.65;;
27383;SDS011;14851;51.166;4.760;2023-05-10T13:15:39;11.18;;;8.85;;
27383;SDS011;14851;51.166;4.760;2023-05-10T13:18:05;10.05;;;7.90;;
27383;SDS011;14851;51.166;4.760;2023-05-10T13:20:31;11.77;;;7.80;;
27383;SDS011;14851;51.166;4.760;2023-05-10T13:22:57;9.18;;;8.23;;
27383;SDS011;14851;51.166;4.760;2023-05-10T13:25:23;10.15;;;8.15;;
27383;SDS011;14851;51.166;4.760;2023-05-10T13:27:54;12.57;;;8.68;;
27383;SDS011;14851;51.166;4.760;2023-05-10T13:30:19;10.63;;;8.10;;
27383;SDS011;14851;51.166;4.760;2023-05-10T13:35:16;9.27;;;8.27;;
27383;SDS011;14851;51.166;4.760;2023-05-10T13:37:42;9.45;;;7.65;;
27383;SDS011;14851;51.166;4.760;2023-05-10T13:40:08;10.52;;;8.18;;
27383;SDS011;14851;51.166;4.760;2023-05-10T13:42:34;9.70;;;8.70;;
27383;SDS011;14851;51.166;4.760;2023-05-10T13:45:00;10.85;;;8.30;;
27383;SDS011;14851;51.166;4.760;2023-05-10T13:47:27;8.82;;;7.45;;
27383;SDS011;14851;51.166;4.760;2023-05-10T13:49:53;9.90;;;8.65;;
27383;SDS011;14851;51.166;4.760;2023-05-10T13:52:18;9.75;;;8.73;;
27383;SDS011;14851;51.166;4.760;2023-05-10T13:54:44;11.20;;;9.43;;
27383;SDS011;14851;51.166;4.760;2023-05-10T13:57:11;13.27;;;9.10;;
27383;SDS011;14851;51.166;4.760;2023-05-10T13:59:38;11.57;;;9.25;;
27383;SDS011;14851;51.166;4.760;2023-05-10T14:02:05;12.10;;;9.02;;
27383;SDS011;14851;51.166;4.760;2023-05-10T14:04:33;13.68;;;8.65;;
27383;SDS011;14851;51.166;4.760;2023-05-10T14:07:00;11.15;;;8.90;;
27383;SDS011;14851;51.166;4.760;2023-05-10T14:09:29;11.07;;;8.27;;
27383;SDS011;14851;51.166;4.760;2023-05-10T14:11:55;11.75;;;7.90;;
27383;SDS011;14851;51.166;4.760;2023-05-10T14:14:21;10.55;;;8.63;;
27383;SDS011;14851;51.166;4.760;2023-05-10T14:16:50;10.80;;;8.50;;
27383;SDS011;14851;51.166;4.760;2023-05-10T14:19:15;11.40;;;9.05;;
27383;SDS011;14851;51.166;4.760;2023-05-10T14:21:41;10.90;;;9.18;;
27383;SDS011;14851;51.166;4.760;2023-05-10T14:24:10;12.02;;;9.43;;
27383;SDS011;14851;51.166;4.760;2023-05-10T14:26:36;14.23;;;9.38;;
27383;SDS011;14851;51.166;4.760;2023-05-10T14:29:02;14.93;;;9.98;;
27383;SDS011;14851;51.166;4.760;2023-05-10T14:31:28;12.48;;;9.55;;
27383;SDS011;14851;51.166;4.760;2023-05-10T14:33:55;11.77;;;9.48;;
27383;SDS011;14851;51.166;4.760;2023-05-10T14:36:21;12.38;;;9.40;;
27383;SDS011;14851;51.166;4.760;2023-05-10T14:38:47;16.15;;;9.93;;
27383;SDS011;14851;51.166;4.760;2023-05-10T14:41:15;11.85;;;9.57;;
27383;SDS011;14851;51.166;4.760;2023-05-10T14:43:42;11.55;;;9.82;;
27383;SDS011;14851;51.166;4.760;2023-05-10T14:46:08;12.30;;;9.48;;
27383;SDS011;14851;51.166;4.760;2023-05-10T14:48:35;12.82;;;11.13;;
27383;SDS011;14851;51.166;4.760;2023-05-10T14:51:00;12.15;;;10.38;;
27383;SDS011;14851;51.166;4.760;2023-05-10T14:53:26;10.63;;;9.52;;
27383;SDS011;14851;51.166;4.760;2023-05-10T14:55:55;12.00;;;9.55;;
27383;SDS011;14851;51.166;4.760;2023-05-10T14:58:21;13.35;;;9.63;;
27383;SDS011;14851;51.166;4.760;2023-05-10T15:00:47;13.73;;;9.75;;
27383;SDS011;14851;51.166;4.760;2023-05-10T15:03:12;14.07;;;9.85;;
27383;SDS011;14851;51.166;4.760;2023-05-10T15:05:38;11.88;;;9.68;;
27383;SDS011;14851;51.166;4.760;2023-05-10T15:08:04;11.45;;;8.10;;